Terminal Aerodrome Forecast
Issued by NWS Blacksburg, VA

Home | Current Version | Previous Version | Text Only | Print | Product List | Glossary On
Versions: 1 2 3 4 5 6 7 8 9 10 11 12 13 14 15 16 17 18 19 20 21 22 23 24
000
FTUS41 KRNK 311726
TAFDAN
TAF
KDAN 311726Z 3118/0118 05007KT P6SM BKN040
     FM010600 03003KT P6SM BKN007
      TEMPO 0109/0112 3SM BR BKN004
     FM011500 05006KT P6SM SCT040=

USA.gov is the U.S. government's official web portal to all federal, state and local government web resources and services.